WetterOnline ( http://www.wetteronline.de )

Wetter aktuell Bremervörde

Aktuelles Wetter: Bremervörde (5m)

6-stündlich | Neueste Meldungen
Ortszeit Temperatur Wetter
Sa, 20.10. 14:00 13.8° C bedeckt
Sa, 20.10. 8:00 3.9° C bedeckt
Sa, 20.10. 2:00 1.3° C leicht bewölkt
Fr, 19.10. 20:00 6.4° C wolkig
Fr, 19.10. 14:00 12.9° C leicht bewölkt
Fr, 19.10. 8:00 2.0° C bedeckt
Fr, 19.10. 2:00 4.8° C Nebel
Do, 18.10. 20:00 10.1° C wolkig
Ortszeit Temperatur Wetter
Sa, 20.10. 17:00 13.7° C bewölkt
Sa, 20.10. 16:50 13.7° C bewölkt
Sa, 20.10. 16:40 13.9° C bedeckt
Sa, 20.10. 16:30 13.9° C bedeckt
Sa, 20.10. 16:20 13.9° C bedeckt
Sa, 20.10. 16:10 13.9° C bedeckt
Sa, 20.10. 16:00 14.0° C bewölkt
Sa, 20.10. 15:30 14.0° C bewölkt
Sa, 20.10. 15:00 14.3° C bewölkt
Sa, 20.10. 14:30 13.7° C bewölkt
Sa, 20.10. 14:00 13.8° C bedeckt
Ortszeit Relative Feuchte Sichtweite
Sa, 20.10. 14:00 68% 17 km
Sa, 20.10. 8:00 93% 8 km
Sa, 20.10. 2:00 98% 3.4 km
Fr, 19.10. 20:00 90% 30 km
Fr, 19.10. 14:00 57% 30 km
Fr, 19.10. 8:00 99% 3.2 km
Fr, 19.10. 2:00 99% 0.8 km
Do, 18.10. 20:00 84% 40 km
Ortszeit Relative Feuchte Sichtweite
Sa, 20.10. 17:00 74% 30 km
Sa, 20.10. 16:50 74% -
Sa, 20.10. 16:40 74% -
Sa, 20.10. 16:30 75% 28 km
Sa, 20.10. 16:20 75% -
Sa, 20.10. 16:10 75% -
Sa, 20.10. 16:00 74% 23 km
Sa, 20.10. 15:30 73% 15 km
Sa, 20.10. 15:00 70% 18 km
Sa, 20.10. 14:30 69% 18 km
Sa, 20.10. 14:00 68% 17 km
Ortszeit Niederschlagsmenge Niederschlagsart
Sa, 20.10. 14:00 0.1 l/m2 in 6 Std. Sprühregen
Sa, 20.10. 8:00 0.0 l/m2 in 12 Std. -
Sa, 20.10. 2:00 0.0 l/m2 in 6 Std. -
Fr, 19.10. 20:00 0.0 l/m2 in 12 Std. -
Fr, 19.10. 14:00 0.0 l/m2 in 3 Std. -
Fr, 19.10. 8:00 0.0 l/m2 in 12 Std. -
Fr, 19.10. 2:00 0.0 l/m2 in 6 Std. -
Do, 18.10. 20:00 0.7 l/m2 in 12 Std. -
Ortszeit Niederschlagsmenge Niederschlagsart
Sa, 20.10. 17:00 0.0 l/m2 in 1 Std. -
Sa, 20.10. 16:50 keine Meldung -
Sa, 20.10. 16:40 keine Meldung -
Sa, 20.10. 16:30 0.0 l/m2 in 1 Std. -
Sa, 20.10. 16:20 keine Meldung -
Sa, 20.10. 16:10 keine Meldung -
Sa, 20.10. 16:00 0.0 l/m2 in 1 Std. -
Sa, 20.10. 15:30 0.0 l/m2 in 1 Std. -
Sa, 20.10. 15:00 0.0 l/m2 in 1 Std. -
Sa, 20.10. 14:30 0.0 l/m2 in 1 Std. -
Sa, 20.10. 14:00 0.0 l/m2 in 1 Std. Sprühregen
Ortszeit Stärke Spitze Richtung
km/h Bft. km/h Grad Sektor
Sa, 20.10. 14:00 17 3 26 270° W
Sa, 20.10. 8:00 7 2 14 250° W
Sa, 20.10. 2:00 6 1 7 170° S
Fr, 19.10. 20:00 0 0 14 - -
Fr, 19.10. 14:00 4 1 14 360° N
Fr, 19.10. 8:00 0 0 7 - -
Fr, 19.10. 2:00 4 1 11 10° N
Do, 18.10. 20:00 9 2 26 340° N
Ortszeit Stärke Spitze Richtung
km/h Bft. km/h Grad Sektor
Sa, 20.10. 17:00 13 3 19 320° NW
Sa, 20.10. 16:50 13 3 - 320° NW
Sa, 20.10. 16:40 9 2 - 320° NW
Sa, 20.10. 16:30 11 2 18 310° NW
Sa, 20.10. 16:20 11 2 - 310° NW
Sa, 20.10. 16:10 9 2 - 310° NW
Sa, 20.10. 16:00 7 2 25 340° N
Sa, 20.10. 15:30 11 2 25 280° W
Sa, 20.10. 15:00 15 3 28 280° W
Sa, 20.10. 14:30 17 3 28 270° W
Sa, 20.10. 14:00 17 3 26 270° W
Ortszeit Untergrenze Bedeckung Gattung
total tief tief mittel hoch
Sa, 20.10. 14:00 1410 m 8/8 8/8 - - -
Sa, 20.10. 8:00 1350 m 8/8 8/8 - - -
Sa, 20.10. 2:00 1230 m 2/8 2/8 - - -
Fr, 19.10. 20:00 7500 m 8/8 0/8 - - -
Fr, 19.10. 14:00 930 m 4/8 4/8 - - -
Fr, 19.10. 8:00 990 m 8/8 8/8 - - -
Fr, 19.10. 2:00 - 0/8 0/8 - - -
Do, 18.10. 20:00 1050 m 6/8 6/8 - - -
Ortszeit Bedeckungsgrad in Achtel und Wolkenuntergrenze
Sa, 20.10. 17:00 1(720m) 7(1500m) 7(10500m)
Sa, 20.10. 16:50 1(720m) 7(1500m) 7(10500m)
Sa, 20.10. 16:40 2(720m) 7(1290m) 8(1500m)
Sa, 20.10. 16:30 5(720m) 7(870m) 8(1500m)
Sa, 20.10. 16:20 5(720m) 7(870m) 8(1500m)
Sa, 20.10. 16:10 6(720m) 7(1260m) 8(1500m)
Sa, 20.10. 16:00 7(750m) 7(1080m) 7(1410m)
Sa, 20.10. 15:30 3(690m) 7(1080m) 7(1320m)
Sa, 20.10. 15:00 4(720m) 6(1500m) 8(6900m)
Sa, 20.10. 14:30 3(750m) 5(1020m) 7(1500m)
Sa, 20.10. 14:00 2(1410m) 8(1500m)
Ortszeit Luftdruck NN (hPa) Tendenz (hPa in 3 Std.)
Sa, 20.10. 14:00 1029 - 0,3
Sa, 20.10. 8:00 1029 + 1,2
Sa, 20.10. 2:00 1028 + 0,1
Fr, 19.10. 20:00 1027 + 0,7
Fr, 19.10. 14:00 1027 - 0,8
Fr, 19.10. 8:00 1027 + 0,4
Fr, 19.10. 2:00 1027 - 0,4
Do, 18.10. 20:00 1026 + 1,4
Ortszeit Luftdruck NN (hPa) Tendenz (hPa in 3 Std.)
Sa, 20.10. 17:00 1029 - 0,2
Sa, 20.10. 16:50 1029 keine Meldung
Sa, 20.10. 16:40 1029 keine Meldung
Sa, 20.10. 16:30 1029 - 0,4
Sa, 20.10. 16:20 1029 keine Meldung
Sa, 20.10. 16:10 1029 keine Meldung
Sa, 20.10. 16:00 1029 - 0,4
Sa, 20.10. 15:30 1029 - 0,5
Sa, 20.10. 15:00 1029 - 0,4
Sa, 20.10. 14:30 1029 - 0,3
Sa, 20.10. 14:00 1029 - 0,3
Ortszeit Schneehöhe (cm)
Sa, 20.10. 14:00 -
Sa, 20.10. 8:00 0
Sa, 20.10. 2:00 0
Fr, 19.10. 20:00 0
Fr, 19.10. 14:00 0
Fr, 19.10. 8:00 -
Fr, 19.10. 2:00 -
Do, 18.10. 20:00 -
Ortszeit Schneehöhe (cm)
Sa, 20.10. 17:00 -
Sa, 20.10. 16:50 -
Sa, 20.10. 16:40 0
Sa, 20.10. 16:30 -
Sa, 20.10. 16:20 -
Sa, 20.10. 16:10 -
Sa, 20.10. 16:00 0
Sa, 20.10. 15:30 -
Sa, 20.10. 15:00 -
Sa, 20.10. 14:30 -
Sa, 20.10. 14:00 -
Link zu dieser Seite / Seite empfehlen

Das Wetter in ...